createdAt,value
2024-04-30T00:01:31.644Z,7.25
2024-04-30T00:03:58.915Z,5.95
2024-04-30T00:06:26.254Z,6.88
2024-04-30T00:08:54.167Z,7.65
2024-04-30T00:11:21.392Z,8.27
2024-04-30T00:13:48.398Z,5.75
2024-04-30T00:16:15.827Z,6.35
2024-04-30T00:18:44.062Z,6.85
2024-04-30T00:21:14.302Z,5.63
2024-04-30T00:23:41.476Z,8.05
2024-04-30T00:26:11.585Z,8.05
2024-04-30T00:28:39.051Z,8.05
2024-04-30T00:31:06.895Z,5.68
2024-04-30T00:33:34.134Z,5.47
2024-04-30T00:36:01.518Z,6.90
2024-04-30T00:38:30.778Z,5.72
2024-04-30T00:40:57.995Z,6.18
2024-04-30T00:43:25.060Z,7.22
2024-04-30T00:45:52.399Z,4.57
2024-04-30T00:48:26.572Z,5.50
2024-04-30T00:50:55.098Z,5.88
2024-04-30T00:53:22.910Z,6.53
2024-04-30T00:55:50.481Z,5.18
2024-04-30T00:58:17.690Z,9.50
2024-04-30T01:00:44.958Z,4.35
2024-04-30T01:03:12.261Z,6.78
2024-04-30T01:05:39.617Z,5.00
2024-04-30T01:08:07.139Z,5.22
2024-04-30T01:10:34.601Z,6.55
2024-04-30T01:13:06.689Z,6.40
2024-04-30T01:15:33.862Z,7.00
2024-04-30T01:18:00.963Z,5.30
2024-04-30T01:20:28.230Z,5.70
2024-04-30T01:22:55.377Z,7.35
2024-04-30T01:25:22.589Z,5.22
2024-04-30T01:27:49.790Z,5.05
2024-04-30T01:30:17.029Z,8.85
2024-04-30T01:32:44.504Z,6.03
2024-04-30T01:35:11.791Z,6.18
2024-04-30T01:37:39.079Z,4.78
2024-04-30T01:40:07.150Z,6.43
2024-04-30T01:42:34.473Z,7.38
2024-04-30T01:45:01.629Z,7.10
2024-04-30T01:47:28.940Z,9.00
2024-04-30T01:49:56.032Z,7.10
2024-04-30T01:52:23.264Z,6.03
2024-04-30T01:54:50.398Z,6.63
2024-04-30T01:57:17.660Z,4.28
2024-04-30T01:59:45.337Z,6.07
2024-04-30T02:02:12.832Z,8.27
2024-04-30T02:04:46.506Z,5.18
2024-04-30T02:07:17.399Z,4.10
2024-04-30T02:09:44.877Z,5.10
2024-04-30T02:12:12.100Z,6.78
2024-04-30T02:14:39.256Z,3.42
2024-04-30T02:17:06.576Z,7.22
2024-04-30T02:19:34.140Z,6.88
2024-04-30T02:22:03.926Z,9.23
2024-04-30T02:24:31.022Z,5.22
2024-04-30T02:26:58.207Z,3.97
2024-04-30T02:29:25.240Z,6.57
2024-04-30T02:32:10.908Z,7.32
2024-04-30T02:34:38.062Z,3.83
2024-04-30T02:37:05.508Z,8.27
2024-04-30T02:39:32.787Z,6.55
2024-04-30T02:42:00.138Z,7.95
2024-04-30T02:44:27.257Z,5.25
2024-04-30T02:46:54.878Z,5.57
2024-04-30T02:49:22.182Z,5.25
2024-04-30T02:51:49.565Z,6.30
2024-04-30T02:54:16.992Z,6.50
2024-04-30T02:56:44.278Z,6.90
2024-04-30T02:59:11.434Z,5.50
2024-04-30T03:01:38.520Z,4.28
2024-04-30T03:04:06.101Z,5.28
2024-04-30T03:06:33.461Z,4.63
2024-04-30T03:09:00.566Z,9.32
2024-04-30T03:11:27.667Z,4.78
2024-04-30T03:13:54.768Z,5.13
2024-04-30T03:16:21.944Z,5.18
2024-04-30T03:18:49.309Z,7.07
2024-04-30T03:21:16.556Z,5.22
2024-04-30T03:23:43.908Z,4.78
2024-04-30T03:26:10.993Z,9.38
2024-04-30T03:28:38.364Z,5.70
2024-04-30T03:31:11.646Z,5.40
2024-04-30T03:33:38.944Z,5.25
2024-04-30T03:36:06.596Z,8.52
2024-04-30T03:38:38.715Z,7.03
2024-04-30T03:41:11.788Z,6.25
2024-04-30T03:43:41.810Z,5.90
2024-04-30T03:46:15.185Z,5.65
2024-04-30T03:48:43.395Z,7.28
2024-04-30T03:51:10.814Z,5.15
2024-04-30T03:53:37.929Z,6.80
2024-04-30T03:56:05.658Z,6.25
2024-04-30T03:58:32.895Z,6.78
2024-04-30T04:01:00.243Z,5.05
2024-04-30T04:03:27.673Z,12.10
2024-04-30T04:05:54.933Z,6.72
2024-04-30T04:08:22.135Z,6.97
2024-04-30T04:11:07.906Z,6.20
2024-04-30T04:16:20.986Z,10.02
2024-04-30T04:18:48.222Z,5.13
2024-04-30T04:21:18.440Z,6.97
2024-04-30T04:23:49.133Z,5.88
2024-04-30T04:26:16.482Z,6.25
2024-04-30T04:28:43.730Z,7.28
2024-04-30T04:31:11.635Z,5.47
2024-04-30T04:33:38.950Z,5.35
2024-04-30T04:36:06.430Z,4.80
2024-04-30T04:38:33.445Z,3.88
2024-04-30T04:41:00.738Z,7.00
2024-04-30T04:43:27.792Z,10.85
2024-04-30T04:45:54.940Z,6.80
2024-04-30T04:48:22.096Z,4.82
2024-04-30T04:50:49.271Z,4.97
2024-04-30T04:53:16.699Z,7.07
2024-04-30T04:55:43.789Z,6.20
2024-04-30T04:58:10.954Z,5.03
2024-04-30T05:00:38.366Z,7.20
2024-04-30T05:03:05.798Z,5.13
2024-04-30T05:05:32.962Z,4.95
2024-04-30T05:08:00.171Z,6.35
2024-04-30T05:10:27.468Z,4.82
2024-04-30T05:12:54.580Z,8.25
2024-04-30T05:15:21.628Z,5.45
2024-04-30T05:17:49.116Z,7.00
2024-04-30T05:20:16.349Z,5.50
2024-04-30T05:22:43.714Z,7.65
2024-04-30T05:25:10.965Z,9.00
2024-04-30T05:27:38.201Z,6.85
2024-04-30T05:30:06.209Z,7.43
2024-04-30T05:32:33.542Z,7.53
2024-04-30T05:35:00.871Z,6.85
2024-04-30T05:37:28.370Z,7.30
2024-04-30T05:39:55.434Z,5.97
2024-04-30T05:42:22.502Z,10.38
2024-04-30T05:44:49.760Z,9.05
2024-04-30T05:47:17.160Z,6.45
2024-04-30T05:49:44.301Z,6.32
2024-04-30T05:52:11.453Z,5.15
2024-04-30T05:54:38.624Z,5.20
2024-04-30T05:57:05.976Z,7.05
2024-04-30T05:59:33.086Z,5.78
2024-04-30T06:02:00.367Z,8.48
2024-04-30T06:04:27.785Z,7.72
2024-04-30T06:06:55.019Z,8.73
2024-04-30T06:09:22.386Z,7.25
2024-04-30T06:11:49.632Z,6.35
2024-04-30T06:14:18.222Z,6.95
2024-04-30T06:16:46.108Z,6.35
2024-04-30T06:19:13.307Z,8.63
2024-04-30T06:21:41.773Z,7.70
2024-04-30T06:24:10.183Z,12.20
2024-04-30T06:26:46.233Z,7.53
2024-04-30T06:31:41.170Z,8.63
2024-04-30T06:34:08.441Z,8.18
2024-04-30T06:36:35.673Z,9.80
2024-04-30T06:39:02.875Z,6.95
2024-04-30T06:41:29.974Z,5.82
2024-04-30T06:43:57.128Z,6.82
2024-04-30T06:46:24.263Z,6.85
2024-04-30T06:48:51.365Z,6.60
2024-04-30T06:51:19.174Z,5.53
2024-04-30T06:53:46.375Z,5.68
2024-04-30T06:56:13.597Z,5.65
2024-04-30T06:58:40.777Z,7.68
2024-04-30T07:01:08.180Z,7.47
2024-04-30T07:03:35.554Z,5.93
2024-04-30T07:06:02.768Z,5.70
2024-04-30T07:08:29.933Z,9.50
2024-04-30T07:10:59.804Z,9.98
2024-04-30T07:13:29.247Z,5.85
2024-04-30T07:15:56.659Z,5.32
2024-04-30T07:18:24.231Z,7.45
2024-04-30T07:20:51.400Z,5.43
2024-04-30T07:23:18.559Z,7.93
2024-04-30T07:25:45.690Z,4.13
2024-04-30T07:28:12.978Z,5.03
2024-04-30T07:30:40.256Z,4.88
2024-04-30T07:33:07.537Z,5.95
2024-04-30T07:35:34.697Z,4.55
2024-04-30T07:38:01.845Z,3.75
2024-04-30T07:40:29.116Z,3.83
2024-04-30T07:42:56.896Z,5.68
2024-04-30T07:45:25.032Z,3.90
2024-04-30T07:47:52.549Z,3.78
2024-04-30T07:50:20.379Z,7.10
2024-04-30T07:52:47.515Z,5.07
2024-04-30T07:55:14.800Z,4.15
2024-04-30T07:57:41.928Z,3.80
2024-04-30T08:00:12.420Z,4.80
2024-04-30T08:02:42.871Z,5.38
2024-04-30T08:05:09.991Z,7.57
2024-04-30T08:07:37.397Z,6.28
2024-04-30T08:10:05.089Z,6.65
2024-04-30T08:12:32.283Z,4.13
2024-04-30T08:15:00.194Z,4.18
2024-04-30T08:17:27.939Z,5.80
2024-04-30T08:19:55.224Z,4.03
2024-04-30T08:22:22.398Z,3.45
2024-04-30T08:24:49.548Z,3.88
2024-04-30T08:27:16.758Z,4.65
2024-04-30T08:29:43.786Z,3.95
2024-04-30T08:32:11.144Z,4.00
2024-04-30T08:34:38.391Z,3.80
2024-04-30T08:37:05.718Z,5.22
2024-04-30T08:39:32.754Z,7.40
2024-04-30T08:42:01.312Z,4.18
2024-04-30T08:44:29.783Z,2.33
2024-04-30T08:46:57.363Z,1.85
2024-04-30T08:49:33.789Z,3.33
2024-04-30T08:52:09.858Z,4.15
2024-04-30T08:54:38.046Z,2.08
2024-04-30T08:57:05.745Z,1.88
2024-04-30T08:59:33.206Z,3.15
2024-04-30T09:02:02.050Z,3.53
2024-04-30T09:04:30.780Z,2.72
2024-04-30T09:06:58.195Z,1.85
2024-04-30T09:09:25.461Z,3.70
2024-04-30T09:11:53.058Z,2.13
2024-04-30T09:14:20.219Z,5.63
2024-04-30T09:16:51.785Z,4.22
2024-04-30T09:19:29.132Z,2.50
2024-04-30T09:22:07.377Z,3.88
2024-04-30T09:24:34.950Z,3.65
2024-04-30T09:27:02.100Z,3.97
2024-04-30T09:29:38.405Z,1.80
2024-04-30T09:32:06.830Z,5.95
2024-04-30T09:34:43.662Z,4.00
2024-04-30T09:37:21.224Z,6.35
2024-04-30T09:39:58.617Z,1.80
2024-04-30T09:42:28.593Z,2.38
2024-04-30T09:44:57.376Z,3.08
2024-04-30T09:47:26.782Z,2.83
2024-04-30T09:49:56.472Z,3.13
2024-04-30T09:52:25.719Z,3.67
2024-04-30T09:54:56.099Z,6.05
2024-04-30T09:57:25.020Z,4.40
2024-04-30T09:59:52.128Z,3.40
2024-04-30T10:02:21.293Z,3.15
2024-04-30T10:04:51.125Z,4.03
2024-04-30T10:07:21.004Z,2.17
2024-04-30T10:09:57.314Z,2.13
2024-04-30T10:12:28.791Z,3.67
2024-04-30T10:14:58.113Z,5.13
2024-04-30T10:17:25.234Z,4.82
2024-04-30T10:19:52.351Z,2.00
2024-04-30T10:22:20.285Z,4.13
2024-04-30T10:24:47.624Z,3.63
2024-04-30T10:27:22.057Z,3.35
2024-04-30T10:29:50.345Z,1.77
2024-04-30T10:32:17.496Z,2.78
2024-04-30T10:35:13.826Z,3.30
2024-04-30T10:37:42.138Z,2.35
2024-04-30T10:40:13.234Z,1.83
2024-04-30T10:42:40.694Z,2.97
2024-04-30T10:45:08.356Z,3.63
2024-04-30T10:47:36.986Z,1.58
2024-04-30T10:50:16.282Z,6.05
2024-04-30T10:52:47.037Z,2.22
2024-04-30T10:55:15.160Z,2.97
2024-04-30T10:57:44.480Z,4.82
2024-04-30T11:00:13.035Z,3.80
2024-04-30T11:02:42.239Z,4.55
2024-04-30T11:05:13.618Z,3.53
2024-04-30T11:07:41.110Z,3.17
2024-04-30T11:10:08.814Z,5.45
2024-04-30T11:12:36.731Z,2.50
2024-04-30T11:15:06.574Z,4.32
2024-04-30T11:17:33.992Z,4.50
2024-04-30T11:20:02.260Z,2.50
2024-04-30T11:22:29.768Z,4.50
2024-04-30T11:24:57.193Z,4.75
2024-04-30T11:27:24.455Z,4.40
2024-04-30T11:29:51.503Z,4.43
2024-04-30T11:32:18.713Z,6.35
2024-04-30T11:34:49.672Z,3.92
2024-04-30T11:37:17.053Z,4.00
2024-04-30T11:39:44.408Z,5.68
2024-04-30T11:42:20.322Z,6.03
2024-04-30T11:44:51.844Z,5.35
2024-04-30T11:47:19.182Z,4.13
2024-04-30T11:49:46.503Z,3.92
2024-04-30T11:52:13.638Z,4.10
2024-04-30T11:54:40.902Z,3.20
2024-04-30T11:57:08.110Z,4.80
2024-04-30T11:59:36.421Z,4.53
2024-04-30T12:02:03.907Z,2.00
2024-04-30T12:04:31.155Z,1.75
2024-04-30T12:06:58.367Z,4.07
2024-04-30T12:09:25.582Z,4.43
2024-04-30T12:11:52.696Z,5.28
2024-04-30T12:14:19.934Z,5.13
2024-04-30T12:16:48.260Z,6.40
2024-04-30T12:19:16.227Z,5.57
2024-04-30T12:21:44.767Z,5.70
2024-04-30T12:24:12.194Z,4.85
2024-04-30T12:26:39.435Z,6.95
2024-04-30T12:29:06.497Z,6.68
2024-04-30T12:31:33.908Z,7.22
2024-04-30T12:34:01.239Z,7.65
2024-04-30T12:36:30.115Z,4.78
2024-04-30T12:38:57.511Z,3.55
2024-04-30T12:41:24.633Z,5.07
2024-04-30T12:43:51.771Z,2.97
2024-04-30T12:46:19.729Z,6.57
2024-04-30T12:48:47.054Z,5.22
2024-04-30T12:51:17.032Z,5.45
2024-04-30T12:53:44.243Z,4.38
2024-04-30T12:56:15.083Z,6.35
2024-04-30T12:58:42.367Z,2.15
2024-04-30T13:01:09.624Z,2.65
2024-04-30T13:03:39.649Z,5.53
2024-04-30T13:06:07.353Z,5.07
2024-04-30T13:08:34.558Z,8.63
2024-04-30T13:11:02.062Z,5.40
2024-04-30T13:13:29.508Z,6.20
2024-04-30T13:15:56.780Z,5.05
2024-04-30T13:18:24.000Z,2.78
2024-04-30T13:20:51.453Z,6.50
2024-04-30T13:23:18.709Z,3.45
2024-04-30T13:25:45.955Z,6.85
2024-04-30T13:28:13.843Z,5.50
2024-04-30T13:30:41.098Z,4.90
2024-04-30T13:33:10.204Z,5.68
2024-04-30T13:35:37.893Z,7.05
2024-04-30T13:38:05.333Z,5.25
2024-04-30T13:40:34.222Z,3.15
2024-04-30T13:43:01.578Z,4.80
2024-04-30T13:45:28.661Z,4.97
2024-04-30T13:47:55.906Z,3.92
2024-04-30T13:50:23.054Z,8.73
2024-04-30T13:52:50.186Z,7.18
2024-04-30T13:55:17.436Z,5.82
2024-04-30T13:57:44.668Z,4.32
2024-04-30T14:00:12.425Z,5.65
2024-04-30T14:02:39.796Z,3.08
2024-04-30T14:05:07.474Z,5.30
2024-04-30T14:07:34.647Z,5.35
2024-04-30T14:10:01.869Z,8.10
2024-04-30T14:12:28.934Z,6.57
2024-04-30T14:14:55.997Z,4.60
2024-04-30T14:17:23.654Z,7.47
2024-04-30T14:19:51.052Z,7.30
2024-04-30T14:22:18.335Z,9.05
2024-04-30T14:24:45.558Z,6.80
2024-04-30T14:27:12.733Z,7.38
2024-04-30T14:29:39.853Z,3.65
2024-04-30T14:32:07.370Z,7.70
2024-04-30T14:34:34.750Z,6.03
2024-04-30T14:37:01.982Z,2.67
2024-04-30T14:39:29.169Z,7.32
2024-04-30T14:41:58.671Z,6.13
2024-04-30T14:44:27.338Z,5.18
2024-04-30T14:46:54.718Z,8.48
2024-04-30T14:49:21.985Z,3.85
2024-04-30T14:51:49.246Z,5.93
2024-04-30T14:54:16.292Z,6.32
2024-04-30T14:56:44.394Z,7.28
2024-04-30T14:59:11.577Z,3.80
2024-04-30T15:01:44.965Z,5.43
2024-04-30T15:04:12.330Z,4.68
2024-04-30T15:06:39.507Z,9.02
2024-04-30T15:09:10.151Z,10.57
2024-04-30T15:11:37.516Z,7.05
2024-04-30T15:14:05.478Z,8.25
2024-04-30T15:16:32.849Z,7.28
2024-04-30T15:19:00.086Z,7.63
2024-04-30T15:21:27.246Z,4.75
2024-04-30T15:23:54.325Z,6.30
2024-04-30T15:26:21.710Z,7.32
2024-04-30T15:28:48.936Z,6.72
2024-04-30T15:31:21.032Z,5.18
2024-04-30T15:33:48.680Z,6.45
2024-04-30T15:36:16.468Z,8.95
2024-04-30T15:38:46.080Z,8.18
2024-04-30T15:41:23.881Z,5.95
2024-04-30T15:43:51.747Z,7.18
2024-04-30T15:46:19.591Z,9.57
2024-04-30T15:48:50.495Z,5.72
2024-04-30T15:51:17.933Z,6.10
2024-04-30T15:53:45.382Z,8.60
2024-04-30T15:56:17.934Z,5.47
2024-04-30T15:58:47.655Z,5.25
2024-04-30T16:01:16.188Z,5.95
2024-04-30T16:03:43.738Z,8.80
2024-04-30T16:06:11.859Z,5.90
2024-04-30T16:08:39.291Z,5.35
2024-04-30T16:11:10.238Z,3.15
2024-04-30T16:13:39.518Z,6.00
2024-04-30T16:16:15.676Z,6.70
2024-04-30T16:18:46.317Z,8.13
2024-04-30T16:21:14.160Z,5.70
2024-04-30T16:23:44.224Z,8.15
2024-04-30T16:26:11.621Z,6.30
2024-04-30T16:28:43.690Z,6.82
2024-04-30T16:31:11.686Z,5.75
2024-04-30T16:33:39.231Z,11.27
2024-04-30T16:36:07.684Z,8.65
2024-04-30T16:38:34.970Z,6.90
2024-04-30T16:41:03.683Z,6.63
2024-04-30T16:43:30.940Z,10.82
2024-04-30T16:45:58.159Z,6.32
2024-04-30T16:48:26.279Z,6.20
2024-04-30T16:50:53.445Z,8.63
2024-04-30T16:53:20.618Z,6.13
2024-04-30T16:55:47.870Z,8.48
2024-04-30T16:58:15.083Z,8.70
2024-04-30T17:00:42.743Z,5.15
2024-04-30T17:03:11.838Z,6.35
2024-04-30T17:05:39.268Z,7.15
2024-04-30T17:08:06.794Z,8.75
2024-04-30T17:10:34.209Z,5.07
2024-04-30T17:13:01.538Z,5.50
2024-04-30T17:15:28.910Z,7.25
2024-04-30T17:17:56.634Z,5.22
2024-04-30T17:20:24.037Z,9.38
2024-04-30T17:22:51.171Z,6.65
2024-04-30T17:25:18.544Z,8.73
2024-04-30T17:27:45.751Z,7.82
2024-04-30T17:30:14.322Z,7.07
2024-04-30T17:32:41.941Z,8.35
2024-04-30T17:35:11.932Z,9.23
2024-04-30T17:37:39.178Z,12.15
2024-04-30T17:40:07.024Z,10.90
2024-04-30T17:42:34.706Z,10.93
2024-04-30T17:45:03.143Z,9.25
2024-04-30T17:47:30.364Z,7.72
2024-04-30T17:49:57.686Z,8.82
2024-04-30T17:52:24.932Z,8.70
2024-04-30T17:54:52.235Z,15.32
2024-04-30T17:57:19.479Z,14.23
2024-04-30T17:59:46.748Z,10.07
2024-04-30T18:02:14.161Z,11.70
2024-04-30T18:04:42.596Z,13.73
2024-04-30T18:07:09.746Z,11.52
2024-04-30T18:09:38.874Z,11.80
2024-04-30T18:12:06.367Z,12.50
2024-04-30T18:14:33.650Z,11.52
2024-04-30T18:17:03.218Z,6.13
2024-04-30T18:19:31.725Z,10.23
2024-04-30T18:21:59.082Z,10.60
2024-04-30T18:24:26.600Z,11.13
2024-04-30T18:26:53.841Z,10.00
2024-04-30T18:29:21.104Z,10.82
2024-04-30T18:31:52.822Z,13.95
2024-04-30T18:34:20.445Z,14.40
2024-04-30T18:36:47.800Z,13.35
2024-04-30T18:39:16.437Z,11.43
2024-04-30T18:41:44.209Z,9.77
2024-04-30T18:44:12.214Z,12.95
2024-04-30T18:46:40.430Z,10.18
2024-04-30T18:49:08.135Z,14.48
2024-04-30T18:51:41.329Z,10.57
2024-04-30T18:54:09.314Z,11.05
2024-04-30T18:56:40.702Z,13.60
2024-04-30T18:59:08.040Z,16.45
2024-04-30T19:01:35.549Z,14.00
2024-04-30T19:04:03.836Z,13.48
2024-04-30T19:06:31.273Z,13.60
2024-04-30T19:08:58.830Z,15.05
2024-04-30T19:11:26.081Z,12.02
2024-04-30T19:13:53.227Z,14.57
2024-04-30T19:16:20.563Z,12.23
2024-04-30T19:18:48.303Z,13.70
2024-04-30T19:21:15.576Z,15.73
2024-04-30T19:23:42.543Z,13.43
2024-04-30T19:26:15.111Z,13.10
2024-04-30T19:28:42.261Z,14.50
2024-04-30T19:31:20.992Z,15.02
2024-04-30T19:33:49.191Z,15.25
2024-04-30T19:36:21.596Z,15.93
2024-04-30T19:38:49.622Z,10.85
2024-04-30T19:41:17.746Z,9.85
2024-04-30T19:43:44.902Z,16.13
2024-04-30T19:46:21.698Z,13.50
2024-04-30T19:48:52.446Z,9.85
2024-04-30T19:51:23.699Z,9.70
2024-04-30T19:53:53.106Z,16.75
2024-04-30T19:56:21.260Z,11.40
2024-04-30T19:58:57.409Z,12.25
2024-04-30T20:01:29.179Z,15.07
2024-04-30T20:04:01.244Z,15.73
2024-04-30T20:06:28.868Z,11.93
2024-04-30T20:08:56.220Z,9.23
2024-04-30T20:11:25.561Z,10.35
2024-04-30T20:13:53.713Z,11.60
2024-04-30T20:16:21.105Z,14.65
2024-04-30T20:18:49.686Z,8.63
2024-04-30T20:21:17.404Z,12.90
2024-04-30T20:23:44.715Z,12.68
2024-04-30T20:26:12.837Z,15.57
2024-04-30T20:28:40.039Z,13.45
2024-04-30T20:31:07.844Z,13.05
2024-04-30T20:33:35.295Z,16.52
2024-04-30T20:36:02.537Z,12.93
2024-04-30T20:38:30.508Z,11.10
2024-04-30T20:40:57.711Z,13.00
2024-04-30T20:43:25.248Z,18.15
2024-04-30T20:45:52.503Z,11.50
2024-04-30T20:48:19.910Z,11.48
2024-04-30T20:50:47.155Z,21.33
2024-04-30T20:53:14.356Z,13.93
2024-04-30T20:55:44.912Z,14.30
2024-04-30T20:58:12.832Z,16.25
2024-04-30T21:00:40.216Z,15.00
2024-04-30T21:03:07.537Z,11.07
2024-04-30T21:05:34.852Z,12.73
2024-04-30T21:08:02.234Z,17.55
2024-04-30T21:10:29.416Z,17.13
2024-04-30T21:13:00.081Z,15.30
2024-04-30T21:15:27.289Z,14.40
2024-04-30T21:17:54.659Z,12.57
2024-04-30T21:20:21.823Z,12.90
2024-04-30T21:22:48.872Z,14.63
2024-04-30T21:25:16.185Z,15.30
2024-04-30T21:27:43.363Z,12.68
2024-04-30T21:30:10.877Z,16.02
2024-04-30T21:32:38.282Z,17.95
2024-04-30T21:35:13.232Z,17.85
2024-04-30T21:37:41.372Z,15.43
2024-04-30T21:40:09.896Z,14.90
2024-04-30T21:42:38.218Z,15.10
2024-04-30T21:45:05.812Z,14.00
2024-04-30T21:47:33.008Z,12.50
2024-04-30T21:50:00.219Z,16.42
2024-04-30T21:52:27.622Z,17.13
2024-04-30T21:54:54.900Z,14.18
2024-04-30T21:57:22.192Z,13.95
2024-04-30T21:59:49.362Z,16.75
2024-04-30T22:02:16.568Z,16.30
2024-04-30T22:04:46.274Z,12.82
2024-04-30T22:07:21.343Z,12.68
2024-04-30T22:09:48.820Z,18.40
2024-04-30T22:12:15.982Z,19.60
2024-04-30T22:14:43.189Z,13.93
2024-04-30T22:17:10.309Z,13.55
2024-04-30T22:19:37.792Z,13.10
2024-04-30T22:22:05.342Z,18.85
2024-04-30T22:24:32.618Z,15.15
2024-04-30T22:26:59.808Z,13.52
2024-04-30T22:29:27.199Z,17.77
2024-04-30T22:31:54.121Z,19.55
2024-04-30T22:34:21.416Z,12.63
2024-04-30T22:36:48.527Z,15.90
2024-04-30T22:39:15.653Z,12.38
2024-04-30T22:41:42.926Z,16.20
2024-04-30T22:44:10.144Z,16.85
2024-04-30T22:46:37.286Z,10.23
2024-04-30T22:49:04.574Z,12.48
2024-04-30T22:51:32.227Z,19.38
2024-04-30T22:53:59.411Z,12.30
2024-04-30T22:56:26.912Z,15.70
2024-04-30T22:58:54.594Z,16.17
2024-04-30T23:01:21.825Z,11.32
2024-04-30T23:03:49.015Z,11.90
2024-04-30T23:06:16.270Z,11.90
2024-04-30T23:08:43.421Z,13.95
2024-04-30T23:11:10.673Z,13.30
2024-04-30T23:13:38.090Z,10.52
2024-04-30T23:16:05.669Z,18.65
2024-04-30T23:18:33.300Z,12.68
2024-04-30T23:21:00.638Z,15.63
2024-04-30T23:23:27.934Z,15.35
2024-04-30T23:25:55.248Z,13.35
2024-04-30T23:28:22.525Z,16.17
2024-04-30T23:30:49.904Z,13.00
2024-04-30T23:33:17.015Z,14.68
2024-04-30T23:35:44.287Z,12.75
2024-04-30T23:38:11.654Z,14.73
2024-04-30T23:40:38.852Z,13.48
2024-04-30T23:43:06.322Z,12.20
2024-04-30T23:45:33.628Z,14.15
2024-04-30T23:48:00.867Z,13.13
2024-04-30T23:50:27.931Z,13.02
2024-04-30T23:52:55.396Z,18.38
2024-04-30T23:55:22.529Z,16.33
2024-04-30T23:57:49.818Z,15.90
